sensor_id;sensor_type;location;lat;lon;timestamp;P1;durP1;ratioP1;P2;durP2;ratioP2
21943;SDS011;11136;48.778;9.126;2022-08-19T00:00:36;15.45;;;11.52;;
21943;SDS011;11136;48.778;9.126;2022-08-19T00:03:02;16.45;;;11.20;;
21943;SDS011;11136;48.778;9.126;2022-08-19T00:05:29;16.30;;;11.30;;
21943;SDS011;11136;48.778;9.126;2022-08-19T00:07:54;15.40;;;11.93;;
21943;SDS011;11136;48.778;9.126;2022-08-19T00:10:20;16.33;;;12.65;;
21943;SDS011;11136;48.778;9.126;2022-08-19T00:12:46;12.88;;;11.02;;
21943;SDS011;11136;48.778;9.126;2022-08-19T00:15:13;15.23;;;11.27;;
21943;SDS011;11136;48.778;9.126;2022-08-19T00:17:41;15.85;;;12.23;;
21943;SDS011;11136;48.778;9.126;2022-08-19T00:20:08;16.88;;;11.68;;
21943;SDS011;11136;48.778;9.126;2022-08-19T00:22:36;15.48;;;11.52;;
21943;SDS011;11136;48.778;9.126;2022-08-19T00:25:03;16.52;;;11.73;;
21943;SDS011;11136;48.778;9.126;2022-08-19T00:27:31;14.52;;;11.95;;
21943;SDS011;11136;48.778;9.126;2022-08-19T00:29:57;13.07;;;10.88;;
21943;SDS011;11136;48.778;9.126;2022-08-19T00:32:23;16.17;;;11.88;;
21943;SDS011;11136;48.778;9.126;2022-08-19T00:34:50;16.05;;;11.57;;
21943;SDS011;11136;48.778;9.126;2022-08-19T00:37:18;17.27;;;11.77;;
21943;SDS011;11136;48.778;9.126;2022-08-19T00:39:47;15.32;;;12.25;;
21943;SDS011;11136;48.778;9.126;2022-08-19T00:42:13;15.18;;;12.25;;
21943;SDS011;11136;48.778;9.126;2022-08-19T00:44:40;16.27;;;11.65;;
21943;SDS011;11136;48.778;9.126;2022-08-19T00:47:06;15.40;;;11.95;;
21943;SDS011;11136;48.778;9.126;2022-08-19T00:49:35;15.75;;;12.20;;
21943;SDS011;11136;48.778;9.126;2022-08-19T00:52:22;17.35;;;12.35;;
21943;SDS011;11136;48.778;9.126;2022-08-19T00:54:53;18.85;;;12.52;;
21943;SDS011;11136;48.778;9.126;2022-08-19T00:57:22;16.92;;;12.52;;
21943;SDS011;11136;48.778;9.126;2022-08-19T01:00:00;14.82;;;12.18;;
21943;SDS011;11136;48.778;9.126;2022-08-19T01:02:29;16.45;;;11.88;;
21943;SDS011;11136;48.778;9.126;2022-08-19T01:04:57;14.95;;;11.90;;
21943;SDS011;11136;48.778;9.126;2022-08-19T01:07:23;15.25;;;12.43;;
21943;SDS011;11136;48.778;9.126;2022-08-19T01:09:49;14.38;;;11.63;;
21943;SDS011;11136;48.778;9.126;2022-08-19T01:12:15;16.67;;;12.68;;
21943;SDS011;11136;48.778;9.126;2022-08-19T01:14:41;16.35;;;12.45;;
21943;SDS011;11136;48.778;9.126;2022-08-19T01:20:29;15.25;;;13.05;;
21943;SDS011;11136;48.778;9.126;2022-08-19T01:22:56;18.10;;;12.30;;
21943;SDS011;11136;48.778;9.126;2022-08-19T01:25:27;20.48;;;12.23;;
21943;SDS011;11136;48.778;9.126;2022-08-19T01:27:57;14.68;;;11.82;;
21943;SDS011;11136;48.778;9.126;2022-08-19T01:30:25;14.75;;;12.88;;
21943;SDS011;11136;48.778;9.126;2022-08-19T01:32:54;15.52;;;11.90;;
21943;SDS011;11136;48.778;9.126;2022-08-19T01:35:20;14.48;;;12.07;;
21943;SDS011;11136;48.778;9.126;2022-08-19T01:37:55;17.58;;;13.00;;
21943;SDS011;11136;48.778;9.126;2022-08-19T01:40:25;17.08;;;13.15;;
21943;SDS011;11136;48.778;9.126;2022-08-19T01:45:21;16.85;;;12.77;;
21943;SDS011;11136;48.778;9.126;2022-08-19T01:47:48;18.20;;;13.50;;
21943;SDS011;11136;48.778;9.126;2022-08-19T01:50:14;16.52;;;12.65;;
21943;SDS011;11136;48.778;9.126;2022-08-19T01:52:41;15.07;;;12.57;;
21943;SDS011;11136;48.778;9.126;2022-08-19T01:55:08;17.17;;;13.15;;
21943;SDS011;11136;48.778;9.126;2022-08-19T01:57:37;18.95;;;14.40;;
21943;SDS011;11136;48.778;9.126;2022-08-19T02:00:07;17.17;;;13.50;;
21943;SDS011;11136;48.778;9.126;2022-08-19T02:02:35;18.27;;;14.65;;
21943;SDS011;11136;48.778;9.126;2022-08-19T02:05:01;19.08;;;13.75;;
21943;SDS011;11136;48.778;9.126;2022-08-19T02:07:26;18.23;;;13.90;;
21943;SDS011;11136;48.778;9.126;2022-08-19T02:09:53;19.15;;;14.15;;
21943;SDS011;11136;48.778;9.126;2022-08-19T02:12:20;17.27;;;13.25;;
21943;SDS011;11136;48.778;9.126;2022-08-19T02:14:46;16.77;;;13.43;;
21943;SDS011;11136;48.778;9.126;2022-08-19T02:17:12;19.70;;;14.65;;
21943;SDS011;11136;48.778;9.126;2022-08-19T02:19:37;20.63;;;14.90;;
21943;SDS011;11136;48.778;9.126;2022-08-19T02:22:03;22.25;;;14.85;;
21943;SDS011;11136;48.778;9.126;2022-08-19T02:24:29;20.58;;;14.88;;
21943;SDS011;11136;48.778;9.126;2022-08-19T02:26:54;19.95;;;14.30;;
21943;SDS011;11136;48.778;9.126;2022-08-19T02:29:20;18.38;;;14.02;;
21943;SDS011;11136;48.778;9.126;2022-08-19T02:31:45;20.80;;;13.98;;
21943;SDS011;11136;48.778;9.126;2022-08-19T02:34:11;20.33;;;15.55;;
21943;SDS011;11136;48.778;9.126;2022-08-19T02:36:36;19.77;;;14.63;;
21943;SDS011;11136;48.778;9.126;2022-08-19T02:39:02;20.70;;;14.80;;
21943;SDS011;11136;48.778;9.126;2022-08-19T02:41:29;19.23;;;15.32;;
21943;SDS011;11136;48.778;9.126;2022-08-19T02:43:57;17.85;;;14.98;;
21943;SDS011;11136;48.778;9.126;2022-08-19T02:46:29;19.17;;;15.13;;
21943;SDS011;11136;48.778;9.126;2022-08-19T02:48:57;21.15;;;16.02;;
21943;SDS011;11136;48.778;9.126;2022-08-19T02:51:35;23.45;;;16.00;;
21943;SDS011;11136;48.778;9.126;2022-08-19T02:54:03;22.83;;;16.02;;
21943;SDS011;11136;48.778;9.126;2022-08-19T02:56:30;23.15;;;16.77;;
21943;SDS011;11136;48.778;9.126;2022-08-19T02:58:57;21.08;;;16.58;;
21943;SDS011;11136;48.778;9.126;2022-08-19T03:01:24;25.15;;;17.55;;
21943;SDS011;11136;48.778;9.126;2022-08-19T03:03:52;25.80;;;17.65;;
21943;SDS011;11136;48.778;9.126;2022-08-19T03:06:18;20.92;;;16.45;;
21943;SDS011;11136;48.778;9.126;2022-08-19T03:08:45;24.55;;;16.90;;
21943;SDS011;11136;48.778;9.126;2022-08-19T03:11:13;21.55;;;16.75;;
21943;SDS011;11136;48.778;9.126;2022-08-19T03:13:59;22.38;;;16.15;;
21943;SDS011;11136;48.778;9.126;2022-08-19T03:16:27;23.05;;;16.60;;
21943;SDS011;11136;48.778;9.126;2022-08-19T03:18:55;25.38;;;16.55;;
21943;SDS011;11136;48.778;9.126;2022-08-19T03:21:25;26.38;;;17.58;;
21943;SDS011;11136;48.778;9.126;2022-08-19T03:23:55;20.67;;;16.73;;
21943;SDS011;11136;48.778;9.126;2022-08-19T03:26:21;23.90;;;17.17;;
21943;SDS011;11136;48.778;9.126;2022-08-19T03:28:47;22.25;;;17.90;;
21943;SDS011;11136;48.778;9.126;2022-08-19T03:31:15;23.38;;;17.35;;
21943;SDS011;11136;48.778;9.126;2022-08-19T03:33:43;24.30;;;16.55;;
21943;SDS011;11136;48.778;9.126;2022-08-19T03:36:11;23.08;;;17.40;;
21943;SDS011;11136;48.778;9.126;2022-08-19T03:38:40;23.90;;;17.95;;
21943;SDS011;11136;48.778;9.126;2022-08-19T03:41:09;22.27;;;17.13;;
21943;SDS011;11136;48.778;9.126;2022-08-19T03:43:38;21.23;;;16.48;;
21943;SDS011;11136;48.778;9.126;2022-08-19T03:46:06;25.20;;;18.15;;
21943;SDS011;11136;48.778;9.126;2022-08-19T03:48:36;24.42;;;18.88;;
21943;SDS011;11136;48.778;9.126;2022-08-19T03:51:03;27.25;;;19.67;;
21943;SDS011;11136;48.778;9.126;2022-08-19T03:53:29;26.20;;;19.00;;
21943;SDS011;11136;48.778;9.126;2022-08-19T03:55:56;26.35;;;20.48;;
21943;SDS011;11136;48.778;9.126;2022-08-19T03:58:24;25.13;;;18.63;;
21943;SDS011;11136;48.778;9.126;2022-08-19T04:00:50;26.80;;;21.00;;
21943;SDS011;11136;48.778;9.126;2022-08-19T04:03:16;25.48;;;18.63;;
21943;SDS011;11136;48.778;9.126;2022-08-19T04:05:43;25.33;;;19.70;;
21943;SDS011;11136;48.778;9.126;2022-08-19T04:08:09;26.13;;;19.63;;
21943;SDS011;11136;48.778;9.126;2022-08-19T04:10:35;27.70;;;20.45;;
21943;SDS011;11136;48.778;9.126;2022-08-19T04:13:02;27.17;;;18.85;;
21943;SDS011;11136;48.778;9.126;2022-08-19T04:15:30;28.00;;;19.17;;
21943;SDS011;11136;48.778;9.126;2022-08-19T04:18:00;23.43;;;19.37;;
21943;SDS011;11136;48.778;9.126;2022-08-19T04:20:26;25.23;;;19.02;;
21943;SDS011;11136;48.778;9.126;2022-08-19T04:22:52;25.52;;;18.90;;
21943;SDS011;11136;48.778;9.126;2022-08-19T04:25:17;26.25;;;19.15;;
21943;SDS011;11136;48.778;9.126;2022-08-19T04:27:43;27.05;;;19.00;;
21943;SDS011;11136;48.778;9.126;2022-08-19T04:30:11;31.20;;;19.88;;
21943;SDS011;11136;48.778;9.126;2022-08-19T04:32:38;28.00;;;20.38;;
21943;SDS011;11136;48.778;9.126;2022-08-19T04:35:03;25.70;;;20.10;;
21943;SDS011;11136;48.778;9.126;2022-08-19T04:37:29;29.60;;;20.98;;
21943;SDS011;11136;48.778;9.126;2022-08-19T04:39:58;29.42;;;20.52;;
21943;SDS011;11136;48.778;9.126;2022-08-19T04:42:43;30.40;;;21.15;;
21943;SDS011;11136;48.778;9.126;2022-08-19T04:45:10;25.77;;;20.00;;
21943;SDS011;11136;48.778;9.126;2022-08-19T04:47:38;24.90;;;19.30;;
21943;SDS011;11136;48.778;9.126;2022-08-19T04:50:05;30.02;;;20.70;;
21943;SDS011;11136;48.778;9.126;2022-08-19T04:52:32;29.00;;;19.98;;
21943;SDS011;11136;48.778;9.126;2022-08-19T04:54:58;29.42;;;21.50;;
21943;SDS011;11136;48.778;9.126;2022-08-19T04:57:24;27.98;;;20.83;;
21943;SDS011;11136;48.778;9.126;2022-08-19T04:59:53;28.45;;;21.05;;
21943;SDS011;11136;48.778;9.126;2022-08-19T05:02:19;28.15;;;21.40;;
21943;SDS011;11136;48.778;9.126;2022-08-19T05:04:46;27.38;;;19.33;;
21943;SDS011;11136;48.778;9.126;2022-08-19T05:07:13;26.52;;;20.17;;
21943;SDS011;11136;48.778;9.126;2022-08-19T05:09:38;24.98;;;19.42;;
21943;SDS011;11136;48.778;9.126;2022-08-19T05:12:04;25.67;;;19.92;;
21943;SDS011;11136;48.778;9.126;2022-08-19T05:14:31;22.85;;;18.08;;
21943;SDS011;11136;48.778;9.126;2022-08-19T05:16:56;29.80;;;20.52;;
21943;SDS011;11136;48.778;9.126;2022-08-19T05:19:22;26.63;;;20.02;;
21943;SDS011;11136;48.778;9.126;2022-08-19T05:22:06;25.50;;;19.40;;
21943;SDS011;11136;48.778;9.126;2022-08-19T05:24:50;24.08;;;18.35;;
21943;SDS011;11136;48.778;9.126;2022-08-19T05:27:15;25.05;;;17.75;;
21943;SDS011;11136;48.778;9.126;2022-08-19T05:29:41;23.35;;;18.92;;
21943;SDS011;11136;48.778;9.126;2022-08-19T05:32:06;28.58;;;21.02;;
21943;SDS011;11136;48.778;9.126;2022-08-19T05:34:33;30.25;;;22.13;;
21943;SDS011;11136;48.778;9.126;2022-08-19T05:37:01;28.42;;;20.95;;
21943;SDS011;11136;48.778;9.126;2022-08-19T05:39:28;23.05;;;18.83;;
21943;SDS011;11136;48.778;9.126;2022-08-19T05:41:56;23.85;;;19.33;;
21943;SDS011;11136;48.778;9.126;2022-08-19T05:44:28;27.10;;;21.00;;
21943;SDS011;11136;48.778;9.126;2022-08-19T05:46:56;26.30;;;20.35;;
21943;SDS011;11136;48.778;9.126;2022-08-19T05:49:23;30.63;;;19.42;;
21943;SDS011;11136;48.778;9.126;2022-08-19T05:51:50;26.27;;;20.30;;
21943;SDS011;11136;48.778;9.126;2022-08-19T05:54:16;23.13;;;18.17;;
21943;SDS011;11136;48.778;9.126;2022-08-19T05:56:42;28.13;;;20.38;;
21943;SDS011;11136;48.778;9.126;2022-08-19T05:59:09;27.40;;;19.88;;
21943;SDS011;11136;48.778;9.126;2022-08-19T06:01:39;23.27;;;19.55;;
21943;SDS011;11136;48.778;9.126;2022-08-19T06:04:06;27.73;;;19.52;;
21943;SDS011;11136;48.778;9.126;2022-08-19T06:06:32;23.33;;;18.48;;
21943;SDS011;11136;48.778;9.126;2022-08-19T06:09:00;25.83;;;19.40;;
21943;SDS011;11136;48.778;9.126;2022-08-19T06:11:39;24.35;;;19.02;;
21943;SDS011;11136;48.778;9.126;2022-08-19T06:14:09;23.95;;;19.42;;
21943;SDS011;11136;48.778;9.126;2022-08-19T06:16:37;24.65;;;19.67;;
21943;SDS011;11136;48.778;9.126;2022-08-19T06:19:06;25.58;;;19.15;;
21943;SDS011;11136;48.778;9.126;2022-08-19T06:21:34;25.75;;;19.17;;
21943;SDS011;11136;48.778;9.126;2022-08-19T06:24:02;26.20;;;19.05;;
21943;SDS011;11136;48.778;9.126;2022-08-19T06:26:29;26.63;;;19.20;;
21943;SDS011;11136;48.778;9.126;2022-08-19T06:28:55;29.50;;;20.83;;
21943;SDS011;11136;48.778;9.126;2022-08-19T06:31:23;30.58;;;19.50;;
21943;SDS011;11136;48.778;9.126;2022-08-19T06:33:50;28.38;;;19.30;;
21943;SDS011;11136;48.778;9.126;2022-08-19T06:36:20;24.50;;;19.55;;
21943;SDS011;11136;48.778;9.126;2022-08-19T06:38:52;29.42;;;19.20;;
21943;SDS011;11136;48.778;9.126;2022-08-19T06:41:19;25.13;;;19.70;;
21943;SDS011;11136;48.778;9.126;2022-08-19T06:43:44;27.50;;;19.92;;
21943;SDS011;11136;48.778;9.126;2022-08-19T06:46:13;23.60;;;18.88;;
21943;SDS011;11136;48.778;9.126;2022-08-19T06:48:40;26.00;;;18.17;;
21943;SDS011;11136;48.778;9.126;2022-08-19T06:51:06;25.88;;;20.65;;
21943;SDS011;11136;48.778;9.126;2022-08-19T06:53:32;27.23;;;19.20;;
21943;SDS011;11136;48.778;9.126;2022-08-19T06:55:58;25.00;;;18.98;;
21943;SDS011;11136;48.778;9.126;2022-08-19T06:58:27;34.17;;;20.48;;
21943;SDS011;11136;48.778;9.126;2022-08-19T07:00:57;25.10;;;19.48;;
21943;SDS011;11136;48.778;9.126;2022-08-19T07:03:33;25.85;;;19.77;;
21943;SDS011;11136;48.778;9.126;2022-08-19T07:06:09;26.95;;;19.85;;
21943;SDS011;11136;48.778;9.126;2022-08-19T07:08:37;29.33;;;20.52;;
21943;SDS011;11136;48.778;9.126;2022-08-19T07:11:07;29.05;;;20.40;;
21943;SDS011;11136;48.778;9.126;2022-08-19T07:13:35;24.30;;;18.63;;
21943;SDS011;11136;48.778;9.126;2022-08-19T07:16:09;31.17;;;19.88;;
21943;SDS011;11136;48.778;9.126;2022-08-19T07:18:37;25.40;;;19.55;;
21943;SDS011;11136;48.778;9.126;2022-08-19T07:21:05;27.17;;;19.23;;
21943;SDS011;11136;48.778;9.126;2022-08-19T07:23:32;30.13;;;21.13;;
21943;SDS011;11136;48.778;9.126;2022-08-19T07:25:58;26.75;;;19.50;;
21943;SDS011;11136;48.778;9.126;2022-08-19T07:28:37;25.52;;;18.92;;
21943;SDS011;11136;48.778;9.126;2022-08-19T07:31:04;24.92;;;19.23;;
21943;SDS011;11136;48.778;9.126;2022-08-19T07:33:34;25.08;;;19.08;;
21943;SDS011;11136;48.778;9.126;2022-08-19T07:36:02;25.02;;;20.27;;
21943;SDS011;11136;48.778;9.126;2022-08-19T07:38:32;24.52;;;19.25;;
21943;SDS011;11136;48.778;9.126;2022-08-19T07:40:58;26.63;;;20.02;;
21943;SDS011;11136;48.778;9.126;2022-08-19T07:43:25;25.13;;;17.80;;
21943;SDS011;11136;48.778;9.126;2022-08-19T07:45:52;25.05;;;19.15;;
21943;SDS011;11136;48.778;9.126;2022-08-19T07:48:22;27.02;;;19.27;;
21943;SDS011;11136;48.778;9.126;2022-08-19T07:50:52;23.17;;;17.13;;
21943;SDS011;11136;48.778;9.126;2022-08-19T07:53:19;22.30;;;17.92;;
21943;SDS011;11136;48.778;9.126;2022-08-19T07:55:45;24.42;;;18.45;;
21943;SDS011;11136;48.778;9.126;2022-08-19T07:58:12;24.27;;;18.58;;
21943;SDS011;11136;48.778;9.126;2022-08-19T08:00:40;24.38;;;18.10;;
21943;SDS011;11136;48.778;9.126;2022-08-19T08:03:06;24.17;;;18.90;;
21943;SDS011;11136;48.778;9.126;2022-08-19T08:05:33;21.75;;;17.25;;
21943;SDS011;11136;48.778;9.126;2022-08-19T08:08:17;21.45;;;17.25;;
21943;SDS011;11136;48.778;9.126;2022-08-19T08:11:06;23.38;;;18.80;;
21943;SDS011;11136;48.778;9.126;2022-08-19T08:13:32;24.58;;;18.20;;
21943;SDS011;11136;48.778;9.126;2022-08-19T08:16:00;21.90;;;15.63;;
21943;SDS011;11136;48.778;9.126;2022-08-19T08:18:26;24.92;;;16.88;;
21943;SDS011;11136;48.778;9.126;2022-08-19T08:20:51;21.55;;;16.75;;
21943;SDS011;11136;48.778;9.126;2022-08-19T08:23:17;25.15;;;18.05;;
21943;SDS011;11136;48.778;9.126;2022-08-19T08:25:50;22.02;;;17.42;;
21943;SDS011;11136;48.778;9.126;2022-08-19T08:28:17;24.13;;;17.25;;
21943;SDS011;11136;48.778;9.126;2022-08-19T08:30:43;23.30;;;15.95;;
21943;SDS011;11136;48.778;9.126;2022-08-19T08:33:10;25.45;;;17.73;;
21943;SDS011;11136;48.778;9.126;2022-08-19T08:35:36;21.85;;;16.88;;
21943;SDS011;11136;48.778;9.126;2022-08-19T08:38:02;22.02;;;16.83;;
21943;SDS011;11136;48.778;9.126;2022-08-19T08:43:06;19.45;;;15.90;;
21943;SDS011;11136;48.778;9.126;2022-08-19T08:45:53;24.15;;;17.10;;
21943;SDS011;11136;48.778;9.126;2022-08-19T08:51:12;21.98;;;16.25;;
21943;SDS011;11136;48.778;9.126;2022-08-19T08:53:43;22.77;;;16.13;;
21943;SDS011;11136;48.778;9.126;2022-08-19T08:56:11;23.17;;;15.88;;
21943;SDS011;11136;48.778;9.126;2022-08-19T09:01:51;20.63;;;16.15;;
21943;SDS011;11136;48.778;9.126;2022-08-19T09:04:17;23.88;;;16.20;;
21943;SDS011;11136;48.778;9.126;2022-08-19T09:06:55;22.48;;;16.98;;
21943;SDS011;11136;48.778;9.126;2022-08-19T09:09:41;21.98;;;16.80;;
21943;SDS011;11136;48.778;9.126;2022-08-19T09:12:30;21.05;;;15.38;;
21943;SDS011;11136;48.778;9.126;2022-08-19T09:15:06;20.52;;;15.00;;
21943;SDS011;11136;48.778;9.126;2022-08-19T09:17:34;20.38;;;15.27;;
21943;SDS011;11136;48.778;9.126;2022-08-19T09:20:02;24.33;;;15.85;;
21943;SDS011;11136;48.778;9.126;2022-08-19T09:24:57;21.23;;;15.52;;
21943;SDS011;11136;48.778;9.126;2022-08-19T09:27:24;23.05;;;15.95;;
21943;SDS011;11136;48.778;9.126;2022-08-19T09:29:51;23.77;;;14.93;;
21943;SDS011;11136;48.778;9.126;2022-08-19T09:32:18;18.90;;;14.55;;
21943;SDS011;11136;48.778;9.126;2022-08-19T09:34:44;19.60;;;15.20;;
21943;SDS011;11136;48.778;9.126;2022-08-19T09:37:10;17.23;;;14.40;;
21943;SDS011;11136;48.778;9.126;2022-08-19T09:39:36;20.67;;;13.90;;
21943;SDS011;11136;48.778;9.126;2022-08-19T09:42:03;20.88;;;15.30;;
21943;SDS011;11136;48.778;9.126;2022-08-19T09:44:29;18.38;;;14.40;;
21943;SDS011;11136;48.778;9.126;2022-08-19T09:46:55;20.02;;;14.73;;
21943;SDS011;11136;48.778;9.126;2022-08-19T09:49:21;15.23;;;12.50;;
21943;SDS011;11136;48.778;9.126;2022-08-19T09:51:51;18.88;;;12.70;;
21943;SDS011;11136;48.778;9.126;2022-08-19T09:54:19;19.48;;;14.85;;
21943;SDS011;11136;48.778;9.126;2022-08-19T09:56:44;17.50;;;13.30;;
21943;SDS011;11136;48.778;9.126;2022-08-19T09:59:10;16.90;;;12.70;;
21943;SDS011;11136;48.778;9.126;2022-08-19T10:01:37;16.48;;;12.23;;
21943;SDS011;11136;48.778;9.126;2022-08-19T10:04:03;19.13;;;13.57;;
21943;SDS011;11136;48.778;9.126;2022-08-19T10:06:36;18.10;;;12.63;;
21943;SDS011;11136;48.778;9.126;2022-08-19T10:09:03;13.65;;;11.43;;
21943;SDS011;11136;48.778;9.126;2022-08-19T10:11:31;18.50;;;12.73;;
21943;SDS011;11136;48.778;9.126;2022-08-19T10:13:58;16.58;;;11.20;;
21943;SDS011;11136;48.778;9.126;2022-08-19T10:16:25;15.90;;;12.20;;
21943;SDS011;11136;48.778;9.126;2022-08-19T10:18:51;14.48;;;11.48;;
21943;SDS011;11136;48.778;9.126;2022-08-19T10:21:19;17.92;;;12.82;;
21943;SDS011;11136;48.778;9.126;2022-08-19T10:23:51;14.93;;;11.43;;
21943;SDS011;11136;48.778;9.126;2022-08-19T10:26:20;15.10;;;11.73;;
21943;SDS011;11136;48.778;9.126;2022-08-19T10:28:48;17.42;;;11.77;;
21943;SDS011;11136;48.778;9.126;2022-08-19T10:31:16;16.83;;;11.98;;
21943;SDS011;11136;48.778;9.126;2022-08-19T10:33:44;14.07;;;11.38;;
21943;SDS011;11136;48.778;9.126;2022-08-19T10:36:13;16.48;;;10.85;;
21943;SDS011;11136;48.778;9.126;2022-08-19T10:38:46;13.45;;;11.35;;
21943;SDS011;11136;48.778;9.126;2022-08-19T10:41:15;13.73;;;10.15;;
21943;SDS011;11136;48.778;9.126;2022-08-19T10:43:47;16.20;;;10.02;;
21943;SDS011;11136;48.778;9.126;2022-08-19T10:46:15;14.45;;;10.50;;
21943;SDS011;11136;48.778;9.126;2022-08-19T10:48:41;18.15;;;10.93;;
21943;SDS011;11136;48.778;9.126;2022-08-19T10:51:08;13.27;;;10.25;;
21943;SDS011;11136;48.778;9.126;2022-08-19T10:53:53;14.30;;;10.40;;
21943;SDS011;11136;48.778;9.126;2022-08-19T10:56:20;15.25;;;9.55;;
21943;SDS011;11136;48.778;9.126;2022-08-19T10:59:04;14.32;;;9.57;;
21943;SDS011;11136;48.778;9.126;2022-08-19T11:01:31;14.00;;;9.40;;
21943;SDS011;11136;48.778;9.126;2022-08-19T11:03:59;14.13;;;9.95;;
21943;SDS011;11136;48.778;9.126;2022-08-19T11:06:25;11.73;;;9.25;;
21943;SDS011;11136;48.778;9.126;2022-08-19T11:08:54;15.15;;;9.63;;
21943;SDS011;11136;48.778;9.126;2022-08-19T11:11:20;17.15;;;10.10;;
21943;SDS011;11136;48.778;9.126;2022-08-19T11:13:47;12.60;;;8.93;;
21943;SDS011;11136;48.778;9.126;2022-08-19T11:16:18;14.68;;;9.48;;
21943;SDS011;11136;48.778;9.126;2022-08-19T11:18:48;12.95;;;9.25;;
21943;SDS011;11136;48.778;9.126;2022-08-19T11:23:54;11.57;;;8.63;;
21943;SDS011;11136;48.778;9.126;2022-08-19T11:26:21;16.23;;;10.13;;
21943;SDS011;11136;48.778;9.126;2022-08-19T11:28:48;13.70;;;9.35;;
21943;SDS011;11136;48.778;9.126;2022-08-19T11:31:16;11.23;;;9.05;;
21943;SDS011;11136;48.778;9.126;2022-08-19T11:33:44;14.38;;;9.00;;
21943;SDS011;11136;48.778;9.126;2022-08-19T11:36:11;10.35;;;8.55;;
21943;SDS011;11136;48.778;9.126;2022-08-19T11:38:37;17.90;;;9.35;;
21943;SDS011;11136;48.778;9.126;2022-08-19T11:41:04;15.20;;;8.65;;
21943;SDS011;11136;48.778;9.126;2022-08-19T11:43:40;10.77;;;7.95;;
21943;SDS011;11136;48.778;9.126;2022-08-19T11:46:10;11.15;;;8.60;;
21943;SDS011;11136;48.778;9.126;2022-08-19T11:48:37;10.65;;;9.32;;
21943;SDS011;11136;48.778;9.126;2022-08-19T11:51:04;12.45;;;8.65;;
21943;SDS011;11136;48.778;9.126;2022-08-19T11:53:35;14.40;;;8.13;;
21943;SDS011;11136;48.778;9.126;2022-08-19T11:56:01;9.57;;;7.65;;
21943;SDS011;11136;48.778;9.126;2022-08-19T11:58:27;9.20;;;7.70;;
21943;SDS011;11136;48.778;9.126;2022-08-19T12:00:54;9.88;;;7.80;;
21943;SDS011;11136;48.778;9.126;2022-08-19T12:03:20;12.23;;;8.18;;
21943;SDS011;11136;48.778;9.126;2022-08-19T12:05:46;9.95;;;7.80;;
21943;SDS011;11136;48.778;9.126;2022-08-19T12:08:11;8.85;;;7.65;;
21943;SDS011;11136;48.778;9.126;2022-08-19T12:10:38;9.20;;;6.63;;
21943;SDS011;11136;48.778;9.126;2022-08-19T12:13:04;14.18;;;7.95;;
21943;SDS011;11136;48.778;9.126;2022-08-19T12:15:29;11.85;;;7.22;;
21943;SDS011;11136;48.778;9.126;2022-08-19T12:17:56;10.25;;;7.30;;
21943;SDS011;11136;48.778;9.126;2022-08-19T12:20:22;11.00;;;7.85;;
21943;SDS011;11136;48.778;9.126;2022-08-19T12:22:49;9.05;;;7.53;;
21943;SDS011;11136;48.778;9.126;2022-08-19T12:25:15;13.30;;;7.00;;
21943;SDS011;11136;48.778;9.126;2022-08-19T12:27:40;10.65;;;7.65;;
21943;SDS011;11136;48.778;9.126;2022-08-19T12:30:07;11.65;;;7.82;;
21943;SDS011;11136;48.778;9.126;2022-08-19T12:32:34;10.18;;;8.45;;
21943;SDS011;11136;48.778;9.126;2022-08-19T12:35:00;11.00;;;7.35;;
21943;SDS011;11136;48.778;9.126;2022-08-19T12:37:26;9.15;;;7.95;;
21943;SDS011;11136;48.778;9.126;2022-08-19T12:39:51;9.82;;;7.45;;
21943;SDS011;11136;48.778;9.126;2022-08-19T12:42:17;9.35;;;6.70;;
21943;SDS011;11136;48.778;9.126;2022-08-19T12:44:42;8.13;;;6.70;;
21943;SDS011;11136;48.778;9.126;2022-08-19T12:47:09;9.10;;;7.13;;
21943;SDS011;11136;48.778;9.126;2022-08-19T12:49:36;12.07;;;7.25;;
21943;SDS011;11136;48.778;9.126;2022-08-19T12:52:04;8.07;;;6.78;;
21943;SDS011;11136;48.778;9.126;2022-08-19T12:54:32;7.95;;;6.47;;
21943;SDS011;11136;48.778;9.126;2022-08-19T12:56:58;7.68;;;6.80;;
21943;SDS011;11136;48.778;9.126;2022-08-19T12:59:24;8.68;;;6.97;;
21943;SDS011;11136;48.778;9.126;2022-08-19T13:01:50;9.70;;;7.07;;
21943;SDS011;11136;48.778;9.126;2022-08-19T13:04:16;11.15;;;6.65;;
21943;SDS011;11136;48.778;9.126;2022-08-19T13:06:41;8.23;;;6.78;;
21943;SDS011;11136;48.778;9.126;2022-08-19T13:09:07;10.98;;;7.20;;
21943;SDS011;11136;48.778;9.126;2022-08-19T13:11:33;16.55;;;7.65;;
21943;SDS011;11136;48.778;9.126;2022-08-19T13:13:59;9.77;;;6.82;;
21943;SDS011;11136;48.778;9.126;2022-08-19T13:16:27;8.15;;;6.30;;
21943;SDS011;11136;48.778;9.126;2022-08-19T13:18:53;8.88;;;6.40;;
21943;SDS011;11136;48.778;9.126;2022-08-19T13:21:20;7.95;;;6.53;;
21943;SDS011;11136;48.778;9.126;2022-08-19T13:23:48;12.25;;;7.25;;
21943;SDS011;11136;48.778;9.126;2022-08-19T13:26:14;16.42;;;9.20;;
21943;SDS011;11136;48.778;9.126;2022-08-19T13:28:41;12.90;;;9.50;;
21943;SDS011;11136;48.778;9.126;2022-08-19T13:31:29;10.60;;;8.93;;
21943;SDS011;11136;48.778;9.126;2022-08-19T13:34:17;13.35;;;9.77;;
21943;SDS011;11136;48.778;9.126;2022-08-19T13:36:44;13.63;;;9.80;;
21943;SDS011;11136;48.778;9.126;2022-08-19T13:39:10;14.55;;;9.15;;
21943;SDS011;11136;48.778;9.126;2022-08-19T13:41:36;13.23;;;10.38;;
21943;SDS011;11136;48.778;9.126;2022-08-19T13:44:02;13.48;;;9.73;;
21943;SDS011;11136;48.778;9.126;2022-08-19T13:46:28;22.20;;;9.70;;
21943;SDS011;11136;48.778;9.126;2022-08-19T13:48:55;15.30;;;9.57;;
21943;SDS011;11136;48.778;9.126;2022-08-19T13:51:21;15.15;;;10.38;;
21943;SDS011;11136;48.778;9.126;2022-08-19T13:53:47;13.63;;;9.23;;
21943;SDS011;11136;48.778;9.126;2022-08-19T13:56:14;18.45;;;12.15;;
21943;SDS011;11136;48.778;9.126;2022-08-19T13:58:41;15.13;;;11.82;;
21943;SDS011;11136;48.778;9.126;2022-08-19T14:01:07;19.13;;;12.60;;
21943;SDS011;11136;48.778;9.126;2022-08-19T14:03:33;15.35;;;12.50;;
21943;SDS011;11136;48.778;9.126;2022-08-19T14:06:00;17.30;;;12.15;;
21943;SDS011;11136;48.778;9.126;2022-08-19T14:08:26;19.00;;;13.45;;
21943;SDS011;11136;48.778;9.126;2022-08-19T14:10:53;19.30;;;14.20;;
21943;SDS011;11136;48.778;9.126;2022-08-19T14:13:20;18.15;;;15.20;;
21943;SDS011;11136;48.778;9.126;2022-08-19T14:15:47;20.80;;;15.30;;
21943;SDS011;11136;48.778;9.126;2022-08-19T14:18:13;18.73;;;15.65;;
21943;SDS011;11136;48.778;9.126;2022-08-19T14:20:39;25.67;;;17.17;;
21943;SDS011;11136;48.778;9.126;2022-08-19T14:23:05;19.48;;;16.33;;
21943;SDS011;11136;48.778;9.126;2022-08-19T14:25:31;18.30;;;15.70;;
21943;SDS011;11136;48.778;9.126;2022-08-19T14:27:57;20.92;;;14.70;;
21943;SDS011;11136;48.778;9.126;2022-08-19T14:30:25;20.02;;;15.23;;
21943;SDS011;11136;48.778;9.126;2022-08-19T14:32:55;25.45;;;15.85;;
21943;SDS011;11136;48.778;9.126;2022-08-19T14:35:23;18.00;;;14.38;;
21943;SDS011;11136;48.778;9.126;2022-08-19T14:37:49;21.35;;;15.35;;
21943;SDS011;11136;48.778;9.126;2022-08-19T14:40:19;20.23;;;14.55;;
21943;SDS011;11136;48.778;9.126;2022-08-19T14:42:50;18.20;;;14.10;;
21943;SDS011;11136;48.778;9.126;2022-08-19T14:45:24;16.75;;;13.57;;
21943;SDS011;11136;48.778;9.126;2022-08-19T14:47:50;19.48;;;13.68;;
21943;SDS011;11136;48.778;9.126;2022-08-19T14:50:16;17.92;;;12.57;;